sensor_id;sensor_type;location;lat;lon;timestamp;pressure;altitude;pressure_sealevel;temperature
53667;BMP280;39568;51.026;5.468;2023-06-14T00:02:24;100541.56;;;19.23
53667;BMP280;39568;51.026;5.468;2023-06-14T00:04:54;100542.97;;;19.24
53667;BMP280;39568;51.026;5.468;2023-06-14T00:07:33;100540.91;;;19.15
53667;BMP280;39568;51.026;5.468;2023-06-14T00:10:03;100535.66;;;19.17
53667;BMP280;39568;51.026;5.468;2023-06-14T00:12:30;100541.84;;;19.10
53667;BMP280;39568;51.026;5.468;2023-06-14T00:14:57;100535.63;;;19.00
53667;BMP280;39568;51.026;5.468;2023-06-14T00:17:25;100537.28;;;18.96
53667;BMP280;39568;51.026;5.468;2023-06-14T00:19:55;100534.97;;;18.92
53667;BMP280;39568;51.026;5.468;2023-06-14T00:22:23;100548.13;;;18.88
53667;BMP280;39568;51.026;5.468;2023-06-14T00:24:50;100541.13;;;18.85
53667;BMP280;39568;51.026;5.468;2023-06-14T00:27:19;100537.91;;;18.79
53667;BMP280;39568;51.026;5.468;2023-06-14T00:29:54;100533.63;;;18.76
53667;BMP280;39568;51.026;5.468;2023-06-14T00:32:20;100540.16;;;18.66
53667;BMP280;39568;51.026;5.468;2023-06-14T00:34:51;100538.56;;;18.55
53667;BMP280;39568;51.026;5.468;2023-06-14T00:37:18;100539.50;;;18.50
53667;BMP280;39568;51.026;5.468;2023-06-14T00:39:44;100534.84;;;18.43
53667;BMP280;39568;51.026;5.468;2023-06-14T00:42:12;100534.50;;;18.39
53667;BMP280;39568;51.026;5.468;2023-06-14T00:44:50;100533.63;;;18.36
53667;BMP280;39568;51.026;5.468;2023-06-14T00:47:17;100536.38;;;18.29
53667;BMP280;39568;51.026;5.468;2023-06-14T00:49:45;100539.97;;;18.24
53667;BMP280;39568;51.026;5.468;2023-06-14T00:52:13;100542.88;;;18.18
53667;BMP280;39568;51.026;5.468;2023-06-14T00:54:40;100555.28;;;18.14
53667;BMP280;39568;51.026;5.468;2023-06-14T00:57:07;100543.59;;;18.19
53667;BMP280;39568;51.026;5.468;2023-06-14T00:59:42;100546.44;;;18.21
53667;BMP280;39568;51.026;5.468;2023-06-14T01:02:14;100545.56;;;18.11
53667;BMP280;39568;51.026;5.468;2023-06-14T01:04:46;100548.25;;;18.11
53667;BMP280;39568;51.026;5.468;2023-06-14T01:07:20;100554.72;;;18.08
53667;BMP280;39568;51.026;5.468;2023-06-14T01:10:02;100555.47;;;17.93
53667;BMP280;39568;51.026;5.468;2023-06-14T01:12:37;100549.56;;;17.95
53667;BMP280;39568;51.026;5.468;2023-06-14T01:15:06;100553.53;;;17.86
53667;BMP280;39568;51.026;5.468;2023-06-14T01:17:41;100555.16;;;17.82
53667;BMP280;39568;51.026;5.468;2023-06-14T01:20:12;100558.75;;;17.77
53667;BMP280;39568;51.026;5.468;2023-06-14T01:22:50;100557.13;;;17.73
53667;BMP280;39568;51.026;5.468;2023-06-14T01:25:18;100553.69;;;17.73
53667;BMP280;39568;51.026;5.468;2023-06-14T01:27:47;100556.97;;;17.72
53667;BMP280;39568;51.026;5.468;2023-06-14T01:30:16;100556.59;;;17.67
53667;BMP280;39568;51.026;5.468;2023-06-14T01:32:43;100560.16;;;17.62
53667;BMP280;39568;51.026;5.468;2023-06-14T01:35:11;100554.78;;;17.62
53667;BMP280;39568;51.026;5.468;2023-06-14T01:37:41;100553.72;;;17.65
53667;BMP280;39568;51.026;5.468;2023-06-14T01:40:14;100551.94;;;17.53
53667;BMP280;39568;51.026;5.468;2023-06-14T01:42:42;100555.34;;;17.46
53667;BMP280;39568;51.026;5.468;2023-06-14T01:45:10;100556.06;;;17.46
53667;BMP280;39568;51.026;5.468;2023-06-14T01:47:37;100554.06;;;17.39
53667;BMP280;39568;51.026;5.468;2023-06-14T01:50:05;100557.13;;;17.43
53667;BMP280;39568;51.026;5.468;2023-06-14T01:52:33;100557.31;;;17.45
53667;BMP280;39568;51.026;5.468;2023-06-14T01:55:00;100550.50;;;17.44
53667;BMP280;39568;51.026;5.468;2023-06-14T01:57:29;100553.00;;;17.42
53667;BMP280;39568;51.026;5.468;2023-06-14T01:59:56;100557.13;;;17.28
53667;BMP280;39568;51.026;5.468;2023-06-14T02:02:22;100555.16;;;17.21
53667;BMP280;39568;51.026;5.468;2023-06-14T02:04:49;100563.00;;;17.19
53667;BMP280;39568;51.026;5.468;2023-06-14T02:07:21;100561.03;;;17.12
53667;BMP280;39568;51.026;5.468;2023-06-14T02:09:50;100559.06;;;17.05
53667;BMP280;39568;51.026;5.468;2023-06-14T02:12:17;100557.25;;;17.00
53667;BMP280;39568;51.026;5.468;2023-06-14T02:14:45;100556.50;;;16.92
53667;BMP280;39568;51.026;5.468;2023-06-14T02:17:14;100558.28;;;16.89
53667;BMP280;39568;51.026;5.468;2023-06-14T02:19:43;100566.88;;;16.80
53667;BMP280;39568;51.026;5.468;2023-06-14T02:22:10;100563.09;;;16.76
53667;BMP280;39568;51.026;5.468;2023-06-14T02:24:36;100560.03;;;16.72
53667;BMP280;39568;51.026;5.468;2023-06-14T02:27:05;100563.41;;;16.65
53667;BMP280;39568;51.026;5.468;2023-06-14T02:29:35;100562.84;;;16.59
53667;BMP280;39568;51.026;5.468;2023-06-14T02:32:03;100567.84;;;16.55
53667;BMP280;39568;51.026;5.468;2023-06-14T02:34:34;100574.09;;;16.50
53667;BMP280;39568;51.026;5.468;2023-06-14T02:37:01;100571.03;;;16.53
53667;BMP280;39568;51.026;5.468;2023-06-14T02:39:28;100561.34;;;16.43
53667;BMP280;39568;51.026;5.468;2023-06-14T02:41:56;100565.28;;;16.42
53667;BMP280;39568;51.026;5.468;2023-06-14T02:44:24;100567.69;;;16.32
53667;BMP280;39568;51.026;5.468;2023-06-14T02:46:52;100569.63;;;16.24
53667;BMP280;39568;51.026;5.468;2023-06-14T02:49:21;100561.75;;;16.18
53667;BMP280;39568;51.026;5.468;2023-06-14T02:51:48;100561.31;;;16.07
53667;BMP280;39568;51.026;5.468;2023-06-14T02:54:18;100570.09;;;16.07
53667;BMP280;39568;51.026;5.468;2023-06-14T02:56:44;100569.72;;;16.03
53667;BMP280;39568;51.026;5.468;2023-06-14T02:59:13;100565.56;;;16.02
53667;BMP280;39568;51.026;5.468;2023-06-14T03:01:51;100570.38;;;15.96
53667;BMP280;39568;51.026;5.468;2023-06-14T03:04:19;100571.41;;;15.93
53667;BMP280;39568;51.026;5.468;2023-06-14T03:06:48;100574.97;;;15.88
53667;BMP280;39568;51.026;5.468;2023-06-14T03:09:19;100577.28;;;15.84
53667;BMP280;39568;51.026;5.468;2023-06-14T03:11:46;100580.28;;;15.81
53667;BMP280;39568;51.026;5.468;2023-06-14T03:14:13;100575.59;;;15.81
53667;BMP280;39568;51.026;5.468;2023-06-14T03:16:40;100577.91;;;15.77
53667;BMP280;39568;51.026;5.468;2023-06-14T03:19:08;100587.28;;;15.84
53667;BMP280;39568;51.026;5.468;2023-06-14T03:21:36;100590.69;;;15.84
53667;BMP280;39568;51.026;5.468;2023-06-14T03:24:10;100590.28;;;15.80
53667;BMP280;39568;51.026;5.468;2023-06-14T03:26:37;100593.41;;;15.71
53667;BMP280;39568;51.026;5.468;2023-06-14T03:29:03;100582.88;;;15.73
53667;BMP280;39568;51.026;5.468;2023-06-14T03:31:31;100589.16;;;15.76
53667;BMP280;39568;51.026;5.468;2023-06-14T03:33:59;100593.50;;;15.79
53667;BMP280;39568;51.026;5.468;2023-06-14T03:36:29;100593.81;;;15.75
53667;BMP280;39568;51.026;5.468;2023-06-14T03:38:58;100592.81;;;15.86
53667;BMP280;39568;51.026;5.468;2023-06-14T03:41:27;100593.50;;;15.79
53667;BMP280;39568;51.026;5.468;2023-06-14T03:43:53;100597.84;;;15.69
53667;BMP280;39568;51.026;5.468;2023-06-14T03:46:20;100600.88;;;15.65
53667;BMP280;39568;51.026;5.468;2023-06-14T03:48:46;100598.41;;;15.67
53667;BMP280;39568;51.026;5.468;2023-06-14T03:51:13;100603.31;;;15.76
53667;BMP280;39568;51.026;5.468;2023-06-14T03:53:40;100605.22;;;15.68
53667;BMP280;39568;51.026;5.468;2023-06-14T03:56:07;100598.78;;;15.71
53667;BMP280;39568;51.026;5.468;2023-06-14T03:58:38;100599.56;;;15.79
53667;BMP280;39568;51.026;5.468;2023-06-14T04:01:05;100608.66;;;15.76
53667;BMP280;39568;51.026;5.468;2023-06-14T04:03:32;100608.66;;;15.76
53667;BMP280;39568;51.026;5.468;2023-06-14T04:06:02;100607.78;;;15.81
53667;BMP280;39568;51.026;5.468;2023-06-14T04:08:31;100608.84;;;15.78
53667;BMP280;39568;51.026;5.468;2023-06-14T04:11:00;100611.47;;;15.91
53667;BMP280;39568;51.026;5.468;2023-06-14T04:13:27;100618.97;;;15.93
53667;BMP280;39568;51.026;5.468;2023-06-14T04:15:55;100615.44;;;15.98
53667;BMP280;39568;51.026;5.468;2023-06-14T04:18:22;100621.41;;;16.04
53667;BMP280;39568;51.026;5.468;2023-06-14T04:20:49;100627.38;;;16.10
53667;BMP280;39568;51.026;5.468;2023-06-14T04:23:18;100617.19;;;16.16
53667;BMP280;39568;51.026;5.468;2023-06-14T04:25:48;100617.56;;;16.20
53667;BMP280;39568;51.026;5.468;2023-06-14T04:28:19;100631.06;;;16.28
53667;BMP280;39568;51.026;5.468;2023-06-14T04:30:52;100624.66;;;16.31
53667;BMP280;39568;51.026;5.468;2023-06-14T04:33:20;100619.00;;;16.49
53667;BMP280;39568;51.026;5.468;2023-06-14T04:35:48;100624.38;;;16.49
53667;BMP280;39568;51.026;5.468;2023-06-14T04:38:22;100623.00;;;16.56
53667;BMP280;39568;51.026;5.468;2023-06-14T04:40:51;100621.75;;;16.57
53667;BMP280;39568;51.026;5.468;2023-06-14T04:43:19;100622.19;;;16.76
53667;BMP280;39568;51.026;5.468;2023-06-14T04:45:53;100632.44;;;16.85
53667;BMP280;39568;51.026;5.468;2023-06-14T04:48:23;100629.88;;;16.72
53667;BMP280;39568;51.026;5.468;2023-06-14T04:50:51;100630.56;;;16.65
53667;BMP280;39568;51.026;5.468;2023-06-14T04:53:19;100632.38;;;16.70
53667;BMP280;39568;51.026;5.468;2023-06-14T04:55:48;100639.56;;;16.75
53667;BMP280;39568;51.026;5.468;2023-06-14T04:58:16;100635.63;;;16.76
53667;BMP280;39568;51.026;5.468;2023-06-14T05:00:43;100639.94;;;16.79
53667;BMP280;39568;51.026;5.468;2023-06-14T05:03:09;100637.13;;;16.92
53667;BMP280;39568;51.026;5.468;2023-06-14T05:05:40;100638.59;;;17.01
53667;BMP280;39568;51.026;5.468;2023-06-14T05:08:08;100639.75;;;17.13
53667;BMP280;39568;51.026;5.468;2023-06-14T05:10:35;100642.78;;;17.24
53667;BMP280;39568;51.026;5.468;2023-06-14T05:13:04;100643.00;;;17.41
53667;BMP280;39568;51.026;5.468;2023-06-14T05:15:35;100652.00;;;17.59
53667;BMP280;39568;51.026;5.468;2023-06-14T05:18:04;100649.50;;;17.68
53667;BMP280;39568;51.026;5.468;2023-06-14T05:20:33;100650.22;;;17.77
53667;BMP280;39568;51.026;5.468;2023-06-14T05:23:03;100649.53;;;17.91
53667;BMP280;39568;51.026;5.468;2023-06-14T05:25:30;100649.16;;;18.02
53667;BMP280;39568;51.026;5.468;2023-06-14T05:27:57;100644.28;;;18.16
53667;BMP280;39568;51.026;5.468;2023-06-14T05:30:23;100643.00;;;18.32
53667;BMP280;39568;51.026;5.468;2023-06-14T05:32:52;100654.69;;;18.42
53667;BMP280;39568;51.026;5.468;2023-06-14T05:35:21;100655.88;;;18.56
53667;BMP280;39568;51.026;5.468;2023-06-14T05:37:50;100660.19;;;18.59
53667;BMP280;39568;51.026;5.468;2023-06-14T05:40:18;100656.91;;;18.68
53667;BMP280;39568;51.026;5.468;2023-06-14T05:42:45;100649.66;;;18.86
53667;BMP280;39568;51.026;5.468;2023-06-14T05:45:12;100646.41;;;18.87
53667;BMP280;39568;51.026;5.468;2023-06-14T05:47:40;100645.31;;;18.90
53667;BMP280;39568;51.026;5.468;2023-06-14T05:50:07;100646.31;;;19.02
53667;BMP280;39568;51.026;5.468;2023-06-14T05:52:36;100656.53;;;19.11
53667;BMP280;39568;51.026;5.468;2023-06-14T05:55:05;100649.16;;;19.19
53667;BMP280;39568;51.026;5.468;2023-06-14T05:57:33;100653.38;;;19.30
53667;BMP280;39568;51.026;5.468;2023-06-14T06:00:02;100652.56;;;19.45
53667;BMP280;39568;51.026;5.468;2023-06-14T06:02:35;100664.34;;;19.57
53667;BMP280;39568;51.026;5.468;2023-06-14T06:05:02;100661.91;;;19.68
53667;BMP280;39568;51.026;5.468;2023-06-14T06:07:31;100668.16;;;19.78
53667;BMP280;39568;51.026;5.468;2023-06-14T06:09:58;100670.41;;;19.89
53667;BMP280;39568;51.026;5.468;2023-06-14T06:12:25;100679.19;;;20.07
53667;BMP280;39568;51.026;5.468;2023-06-14T06:14:57;100675.88;;;20.16
53667;BMP280;39568;51.026;5.468;2023-06-14T06:17:24;100672.41;;;20.23
53667;BMP280;39568;51.026;5.468;2023-06-14T06:19:52;100672.06;;;20.36
53667;BMP280;39568;51.026;5.468;2023-06-14T06:22:21;100670.66;;;20.52
53667;BMP280;39568;51.026;5.468;2023-06-14T06:24:48;100676.72;;;20.70
53667;BMP280;39568;51.026;5.468;2023-06-14T06:27:15;100690.78;;;20.85
53667;BMP280;39568;51.026;5.468;2023-06-14T06:29:44;100686.00;;;20.93
53667;BMP280;39568;51.026;5.468;2023-06-14T06:32:12;100687.63;;;21.06
53667;BMP280;39568;51.026;5.468;2023-06-14T06:34:38;100691.50;;;21.13
53667;BMP280;39568;51.026;5.468;2023-06-14T06:37:07;100691.03;;;21.07
53667;BMP280;39568;51.026;5.468;2023-06-14T06:39:34;100696.50;;;21.16
53667;BMP280;39568;51.026;5.468;2023-06-14T06:42:01;100698.00;;;21.27
53667;BMP280;39568;51.026;5.468;2023-06-14T06:44:28;100703.00;;;21.40
53667;BMP280;39568;51.026;5.468;2023-06-14T06:46:55;100697.06;;;21.51
53667;BMP280;39568;51.026;5.468;2023-06-14T06:49:25;100698.84;;;21.65
53667;BMP280;39568;51.026;5.468;2023-06-14T06:52:00;100701.00;;;21.76
53667;BMP280;39568;51.026;5.468;2023-06-14T06:54:28;100702.03;;;21.81
53667;BMP280;39568;51.026;5.468;2023-06-14T06:56:54;100705.00;;;21.95
53667;BMP280;39568;51.026;5.468;2023-06-14T06:59:21;100708.06;;;22.08
53667;BMP280;39568;51.026;5.468;2023-06-14T07:01:48;100710.03;;;22.08
53667;BMP280;39568;51.026;5.468;2023-06-14T07:04:15;100716.44;;;22.22
53667;BMP280;39568;51.026;5.468;2023-06-14T07:06:46;100711.03;;;22.22
53667;BMP280;39568;51.026;5.468;2023-06-14T07:09:14;100722.16;;;22.35
53667;BMP280;39568;51.026;5.468;2023-06-14T07:11:50;100722.16;;;22.45
53667;BMP280;39568;51.026;5.468;2023-06-14T07:14:20;100725.00;;;22.56
53667;BMP280;39568;51.026;5.468;2023-06-14T07:16:48;100730.00;;;22.60
53667;BMP280;39568;51.026;5.468;2023-06-14T07:19:15;100734.13;;;22.70
53667;BMP280;39568;51.026;5.468;2023-06-14T07:21:42;100735.69;;;22.83
53667;BMP280;39568;51.026;5.468;2023-06-14T07:24:12;100736.09;;;22.89
53667;BMP280;39568;51.026;5.468;2023-06-14T07:26:39;100735.03;;;23.04
53667;BMP280;39568;51.026;5.468;2023-06-14T07:29:10;100739.00;;;23.22
53667;BMP280;39568;51.026;5.468;2023-06-14T07:31:40;100732.69;;;23.29
53667;BMP280;39568;51.026;5.468;2023-06-14T07:34:06;100731.53;;;23.32
53667;BMP280;39568;51.026;5.468;2023-06-14T07:36:33;100735.94;;;23.37
53667;BMP280;39568;51.026;5.468;2023-06-14T07:39:00;100735.63;;;23.42
53667;BMP280;39568;51.026;5.468;2023-06-14T07:41:30;100743.06;;;23.42
53667;BMP280;39568;51.026;5.468;2023-06-14T07:43:56;100742.56;;;23.55
53667;BMP280;39568;51.026;5.468;2023-06-14T07:46:23;100744.53;;;23.64
53667;BMP280;39568;51.026;5.468;2023-06-14T07:48:50;100753.84;;;23.82
53667;BMP280;39568;51.026;5.468;2023-06-14T07:51:18;100747.44;;;23.99
53667;BMP280;39568;51.026;5.468;2023-06-14T07:53:47;100749.97;;;24.06
53667;BMP280;39568;51.026;5.468;2023-06-14T07:56:17;100757.59;;;24.19
53667;BMP280;39568;51.026;5.468;2023-06-14T07:58:45;100758.38;;;24.31
53667;BMP280;39568;51.026;5.468;2023-06-14T08:01:12;100749.78;;;24.46
53667;BMP280;39568;51.026;5.468;2023-06-14T08:03:40;100761.03;;;24.52
53667;BMP280;39568;51.026;5.468;2023-06-14T08:06:07;100758.19;;;24.50
53667;BMP280;39568;51.026;5.468;2023-06-14T08:08:36;100758.91;;;24.51
53667;BMP280;39568;51.026;5.468;2023-06-14T08:11:04;100755.38;;;24.60
53667;BMP280;39568;51.026;5.468;2023-06-14T08:13:31;100763.34;;;24.79
53667;BMP280;39568;51.026;5.468;2023-06-14T08:16:00;100766.53;;;24.87
53667;BMP280;39568;51.026;5.468;2023-06-14T08:18:29;100766.81;;;25.03
53667;BMP280;39568;51.026;5.468;2023-06-14T08:21:03;100774.63;;;25.08
53667;BMP280;39568;51.026;5.468;2023-06-14T08:23:34;100769.94;;;25.20
53667;BMP280;39568;51.026;5.468;2023-06-14T08:26:05;100774.44;;;25.27
53667;BMP280;39568;51.026;5.468;2023-06-14T08:28:32;100778.78;;;25.32
53667;BMP280;39568;51.026;5.468;2023-06-14T08:31:00;100779.72;;;25.37
53667;BMP280;39568;51.026;5.468;2023-06-14T08:33:28;100773.34;;;25.44
53667;BMP280;39568;51.026;5.468;2023-06-14T08:35:58;100771.09;;;25.52
53667;BMP280;39568;51.026;5.468;2023-06-14T08:38:24;100772.97;;;25.61
53667;BMP280;39568;51.026;5.468;2023-06-14T08:40:52;100769.41;;;25.70
53667;BMP280;39568;51.026;5.468;2023-06-14T08:43:23;100765.59;;;25.75
53667;BMP280;39568;51.026;5.468;2023-06-14T08:45:54;100754.50;;;25.96
53667;BMP280;39568;51.026;5.468;2023-06-14T08:48:26;100767.06;;;26.01
53667;BMP280;39568;51.026;5.468;2023-06-14T08:50:54;100761.81;;;26.05
53667;BMP280;39568;51.026;5.468;2023-06-14T08:53:28;100766.41;;;26.14
53667;BMP280;39568;51.026;5.468;2023-06-14T08:55:59;100764.47;;;26.28
53667;BMP280;39568;51.026;5.468;2023-06-14T08:58:27;100768.34;;;26.50
53667;BMP280;39568;51.026;5.468;2023-06-14T09:00:58;100770.94;;;26.60
53667;BMP280;39568;51.026;5.468;2023-06-14T09:03:32;100774.47;;;26.62
53667;BMP280;39568;51.026;5.468;2023-06-14T09:06:08;100771.16;;;26.64
53667;BMP280;39568;51.026;5.468;2023-06-14T09:08:40;100774.41;;;26.74
53667;BMP280;39568;51.026;5.468;2023-06-14T09:11:08;100774.94;;;26.84
53667;BMP280;39568;51.026;5.468;2023-06-14T09:13:37;100773.81;;;26.89
53667;BMP280;39568;51.026;5.468;2023-06-14T09:16:07;100763.72;;;27.05
53667;BMP280;39568;51.026;5.468;2023-06-14T09:18:36;100774.13;;;27.09
53667;BMP280;39568;51.026;5.468;2023-06-14T09:21:05;100782.75;;;27.30
53667;BMP280;39568;51.026;5.468;2023-06-14T09:23:33;100780.41;;;27.52
53667;BMP280;39568;51.026;5.468;2023-06-14T09:26:06;100775.53;;;27.64
53667;BMP280;39568;51.026;5.468;2023-06-14T09:28:33;100777.03;;;28.25
53667;BMP280;39568;51.026;5.468;2023-06-14T09:31:08;100784.25;;;28.79
53667;BMP280;39568;51.026;5.468;2023-06-14T09:33:37;100757.59;;;29.46
53667;BMP280;39568;51.026;5.468;2023-06-14T09:36:04;100777.94;;;30.11
53667;BMP280;39568;51.026;5.468;2023-06-14T09:38:31;100785.97;;;31.22
53667;BMP280;39568;51.026;5.468;2023-06-14T09:41:03;100788.44;;;32.26
53667;BMP280;39568;51.026;5.468;2023-06-14T09:43:30;100788.00;;;33.14
53667;BMP280;39568;51.026;5.468;2023-06-14T09:46:00;100784.88;;;34.27
53667;BMP280;39568;51.026;5.468;2023-06-14T09:48:29;100794.09;;;34.79
53667;BMP280;39568;51.026;5.468;2023-06-14T09:51:01;100786.88;;;35.51
53667;BMP280;39568;51.026;5.468;2023-06-14T09:53:30;100777.34;;;36.26
53667;BMP280;39568;51.026;5.468;2023-06-14T09:55:58;100790.16;;;35.91
53667;BMP280;39568;51.026;5.468;2023-06-14T09:58:27;100776.69;;;35.65
53667;BMP280;39568;51.026;5.468;2023-06-14T10:00:55;100777.47;;;36.40
53667;BMP280;39568;51.026;5.468;2023-06-14T10:03:26;100785.72;;;33.68
53667;BMP280;39568;51.026;5.468;2023-06-14T10:05:55;100789.00;;;34.65
53667;BMP280;39568;51.026;5.468;2023-06-14T10:08:30;100778.13;;;36.36
53667;BMP280;39568;51.026;5.468;2023-06-14T10:10:58;100773.06;;;36.13
53667;BMP280;39568;51.026;5.468;2023-06-14T10:13:26;100779.47;;;37.25
53667;BMP280;39568;51.026;5.468;2023-06-14T10:15:58;100779.31;;;36.95
53667;BMP280;39568;51.026;5.468;2023-06-14T10:18:35;100773.94;;;37.27
53667;BMP280;39568;51.026;5.468;2023-06-14T10:21:13;100779.69;;;36.55
53667;BMP280;39568;51.026;5.468;2023-06-14T10:23:45;100779.41;;;37.17
53667;BMP280;39568;51.026;5.468;2023-06-14T10:26:20;100785.31;;;38.29
53667;BMP280;39568;51.026;5.468;2023-06-14T10:28:59;100773.47;;;37.98
53667;BMP280;39568;51.026;5.468;2023-06-14T10:31:42;100778.25;;;37.58
53667;BMP280;39568;51.026;5.468;2023-06-14T10:34:10;100781.13;;;37.94
53667;BMP280;39568;51.026;5.468;2023-06-14T10:36:38;100786.66;;;39.06
53667;BMP280;39568;51.026;5.468;2023-06-14T10:39:12;100788.09;;;38.49
53667;BMP280;39568;51.026;5.468;2023-06-14T10:41:51;100788.13;;;38.47
53667;BMP280;39568;51.026;5.468;2023-06-14T10:44:41;100789.50;;;40.19
53667;BMP280;39568;51.026;5.468;2023-06-14T10:47:20;100782.41;;;40.32
53667;BMP280;39568;51.026;5.468;2023-06-14T10:49:50;100785.06;;;35.71
53667;BMP280;39568;51.026;5.468;2023-06-14T10:52:21;100796.94;;;37.47
53667;BMP280;39568;51.026;5.468;2023-06-14T10:55:09;100787.22;;;36.41
53667;BMP280;39568;51.026;5.468;2023-06-14T10:57:41;100789.50;;;38.34
53667;BMP280;39568;51.026;5.468;2023-06-14T11:00:10;100789.50;;;38.34
53667;BMP280;39568;51.026;5.468;2023-06-14T11:03:18;100779.66;;;37.71
53667;BMP280;39568;51.026;5.468;2023-06-14T11:05:52;100786.06;;;36.74
53667;BMP280;39568;51.026;5.468;2023-06-14T11:09:00;100780.41;;;36.56
53667;BMP280;39568;51.026;5.468;2023-06-14T11:11:35;100787.28;;;37.60
53667;BMP280;39568;51.026;5.468;2023-06-14T11:14:04;100772.59;;;37.30
53667;BMP280;39568;51.026;5.468;2023-06-14T11:16:32;100777.00;;;38.43
53667;BMP280;39568;51.026;5.468;2023-06-14T11:19:01;100779.09;;;38.42
53667;BMP280;39568;51.026;5.468;2023-06-14T11:21:32;100772.75;;;38.98
53667;BMP280;39568;51.026;5.468;2023-06-14T11:23:59;100783.25;;;38.69
53667;BMP280;39568;51.026;5.468;2023-06-14T11:26:28;100783.94;;;38.18
53667;BMP280;39568;51.026;5.468;2023-06-14T11:28:58;100768.59;;;37.73
53667;BMP280;39568;51.026;5.468;2023-06-14T11:31:25;100773.88;;;39.57
53667;BMP280;39568;51.026;5.468;2023-06-14T11:33:54;100789.50;;;38.78
53667;BMP280;39568;51.026;5.468;2023-06-14T11:36:22;100786.56;;;39.26
53667;BMP280;39568;51.026;5.468;2023-06-14T11:38:58;100778.13;;;39.46
53667;BMP280;39568;51.026;5.468;2023-06-14T11:41:25;100775.63;;;40.81
53667;BMP280;39568;51.026;5.468;2023-06-14T11:43:52;100768.19;;;39.83
53667;BMP280;39568;51.026;5.468;2023-06-14T11:46:21;100774.59;;;39.54
53667;BMP280;39568;51.026;5.468;2023-06-14T11:48:52;100771.44;;;40.14
53667;BMP280;39568;51.026;5.468;2023-06-14T11:51:20;100768.19;;;41.69
53667;BMP280;39568;51.026;5.468;2023-06-14T11:53:49;100767.47;;;41.72
53667;BMP280;39568;51.026;5.468;2023-06-14T11:56:16;100766.75;;;39.90
53667;BMP280;39568;51.026;5.468;2023-06-14T11:58:43;100768.47;;;40.98
53667;BMP280;39568;51.026;5.468;2023-06-14T12:01:16;100758.88;;;40.83
53667;BMP280;39568;51.026;5.468;2023-06-14T12:03:49;100762.41;;;41.34
53667;BMP280;39568;51.026;5.468;2023-06-14T12:06:25;100767.34;;;41.80
53667;BMP280;39568;51.026;5.468;2023-06-14T12:08:55;100770.38;;;41.66
53667;BMP280;39568;51.026;5.468;2023-06-14T12:11:23;100776.25;;;40.90
53667;BMP280;39568;51.026;5.468;2023-06-14T12:13:50;100773.13;;;41.68
53667;BMP280;39568;51.026;5.468;2023-06-14T12:16:17;100767.06;;;41.52
53667;BMP280;39568;51.026;5.468;2023-06-14T12:18:49;100761.19;;;40.65
53667;BMP280;39568;51.026;5.468;2023-06-14T12:21:16;100754.38;;;41.10
53667;BMP280;39568;51.026;5.468;2023-06-14T12:23:48;100754.94;;;40.60
53667;BMP280;39568;51.026;5.468;2023-06-14T12:26:19;100756.03;;;39.04
53667;BMP280;39568;51.026;5.468;2023-06-14T12:28:49;100753.31;;;38.80
53667;BMP280;39568;51.026;5.468;2023-06-14T12:31:17;100762.59;;;36.03
53667;BMP280;39568;51.026;5.468;2023-06-14T12:33:44;100767.88;;;36.51
53667;BMP280;39568;51.026;5.468;2023-06-14T12:36:16;100771.38;;;37.89
53667;BMP280;39568;51.026;5.468;2023-06-14T12:38:44;100782.56;;;35.42
53667;BMP280;39568;51.026;5.468;2023-06-14T12:41:11;100776.94;;;37.81
53667;BMP280;39568;51.026;5.468;2023-06-14T12:43:39;100779.03;;;38.91
53667;BMP280;39568;51.026;5.468;2023-06-14T12:46:06;100763.06;;;40.12
53667;BMP280;39568;51.026;5.468;2023-06-14T12:48:33;100758.63;;;41.56
53667;BMP280;39568;51.026;5.468;2023-06-14T12:51:00;100761.22;;;42.12
53667;BMP280;39568;51.026;5.468;2023-06-14T12:53:32;100766.44;;;41.92
53667;BMP280;39568;51.026;5.468;2023-06-14T12:56:05;100763.56;;;42.36
53667;BMP280;39568;51.026;5.468;2023-06-14T12:58:34;100769.84;;;41.01
53667;BMP280;39568;51.026;5.468;2023-06-14T13:01:02;100788.03;;;39.13
53667;BMP280;39568;51.026;5.468;2023-06-14T13:03:31;100767.94;;;40.11
53667;BMP280;39568;51.026;5.468;2023-06-14T13:05:59;100781.16;;;38.26
53667;BMP280;39568;51.026;5.468;2023-06-14T13:08:28;100782.63;;;40.10
53667;BMP280;39568;51.026;5.468;2023-06-14T13:10:55;100776.03;;;41.06
53667;BMP280;39568;51.026;5.468;2023-06-14T13:13:22;100772.97;;;42.19
53667;BMP280;39568;51.026;5.468;2023-06-14T13:15:49;100773.81;;;42.86
53667;BMP280;39568;51.026;5.468;2023-06-14T13:18:18;100769.50;;;43.81
53667;BMP280;39568;51.026;5.468;2023-06-14T13:20:45;100784.66;;;44.19
53667;BMP280;39568;51.026;5.468;2023-06-14T13:23:12;100783.78;;;44.51
53667;BMP280;39568;51.026;5.468;2023-06-14T13:25:40;100776.50;;;44.60
53667;BMP280;39568;51.026;5.468;2023-06-14T13:28:07;100775.13;;;44.34
53667;BMP280;39568;51.026;5.468;2023-06-14T13:30:39;100779.25;;;44.62
53667;BMP280;39568;51.026;5.468;2023-06-14T13:33:05;100779.84;;;44.40
53667;BMP280;39568;51.026;5.468;2023-06-14T13:35:32;100779.78;;;44.17
53667;BMP280;39568;51.026;5.468;2023-06-14T13:38:00;100776.44;;;42.58
53667;BMP280;39568;51.026;5.468;2023-06-14T13:40:27;100774.31;;;41.33
53667;BMP280;39568;51.026;5.468;2023-06-14T13:42:55;100783.38;;;40.02
53667;BMP280;39568;51.026;5.468;2023-06-14T13:45:22;100790.88;;;38.89
53667;BMP280;39568;51.026;5.468;2023-06-14T13:47:52;100788.00;;;39.17
53667;BMP280;39568;51.026;5.468;2023-06-14T13:50:20;100785.03;;;41.12
53667;BMP280;39568;51.026;5.468;2023-06-14T13:52:46;100775.38;;;42.75
53667;BMP280;39568;51.026;5.468;2023-06-14T13:55:17;100778.66;;;40.61
53667;BMP280;39568;51.026;5.468;2023-06-14T13:57:44;100781.28;;;42.61
53667;BMP280;39568;51.026;5.468;2023-06-14T14:00:13;100784.06;;;43.59
53667;BMP280;39568;51.026;5.468;2023-06-14T14:02:40;100769.94;;;42.67
53667;BMP280;39568;51.026;5.468;2023-06-14T14:05:07;100770.84;;;41.30
53667;BMP280;39568;51.026;5.468;2023-06-14T14:07:34;100771.34;;;41.45
53667;BMP280;39568;51.026;5.468;2023-06-14T14:10:01;100770.94;;;42.88